Flight Track Log - Related Links

Times and Time Zones

All times are in EDT time to prevent confusion due to time zone crossing. See the AWE710 flight status page for this flight to view local times or setup timezone preferences in your user account.

Time Position Orientation Groundspeed Altitude Reporting Facility
EDT Latitude Longitude Course Direction KTS MPH feet Rate Location/Type
Thu 06:53:27 PM 39.8541 -75.2924 223° Southwest 173 199 1,200  Level FlightAware ADS-B
Thu 06:53:41 PM 39.8450 -75.3022 220° Southwest 184 212 1,700 1,800 Climbing FlightAware ADS-B
Thu 06:53:57 PM 39.8339 -75.3135 218° Southwest 205 236 2,100 1,800 Climbing FlightAware ADS-B
Thu 06:54:11 PM 39.8227 -75.3255 219° Southwest 214 246 2,600 2,769 Climbing FlightAware ADS-B
Thu 06:54:23 PM 39.8138 -75.3353 220° Southwest 215 247 3,300 2,640 Climbing FlightAware ADS-B
Thu 06:54:36 PM 39.8043 -75.3461 221° Southwest 228 262 3,700 1,875 Climbing FlightAware ADS-B
Thu 06:54:39 PM 39.8009 -75.3491 214° Southwest 229 264 3,800 3,000 Climbing FlightAware ADS-B
Thu 06:54:42 PM 39.7982 -75.3509 207° Southwest 229 264 4,000 3,000 Climbing FlightAware ADS-B
Thu 06:54:47 PM 39.7937 -75.3528 198° South 228 262 4,200 3,750 Climbing FlightAware ADS-B
Thu 06:54:50 PM 39.7899 -75.3537 190° South 228 262 4,500 4,000 Climbing FlightAware ADS-B
Thu 06:54:56 PM 39.7837 -75.3536 179° South 229 264 4,800 3,000 Climbing FlightAware ADS-B
Thu 06:55:02 PM 39.7774 -75.3515 166° South 232 267 5,100 3,000 Climbing FlightAware ADS-B
Thu 06:55:06 PM 39.7739 -75.3494 155° Southeast 235 270 5,300 3,000 Climbing FlightAware ADS-B
Thu 06:55:10 PM 39.7696 -75.3458 147° Southeast 239 275 5,500 3,000 Climbing FlightAware ADS-B
Thu 06:55:14 PM 39.7667 -75.3423 137° Southeast 242 278 5,700 3,000 Climbing FlightAware ADS-B
Thu 06:55:20 PM 39.7626 -75.3360 130° Southeast 248 285 6,000 2,400 Climbing FlightAware ADS-B
Thu 06:55:24 PM 39.7604 -75.3310 120° Southeast 252 290 6,100 2,667 Climbing FlightAware ADS-B
Thu 06:55:29 PM 39.7580 -75.3235 113° Southeast 257 296 6,400 3,000 Climbing FlightAware ADS-B
Thu 06:55:32 PM 39.7571 -75.3185 103° East 262 302 6,500 2,000 Climbing FlightAware ADS-B
Thu 06:55:38 PM 39.7559 -75.3087 99° East 272 313 6,700 1,875 Climbing FlightAware ADS-B
Thu 06:55:48 PM 39.7544 -75.2919 97° East 278 320 7,000 2,000 Climbing FlightAware ADS-B
Thu 06:55:53 PM 39.7535 -75.2840 98° East 282 325 7,200 2,667 Climbing FlightAware ADS-B
Thu 06:55:57 PM 39.7530 -75.2778 96° East 285 328 7,400 2,700 Climbing FlightAware ADS-B
Thu 06:56:13 PM 39.7523 -75.2506 92° East 290 334 8,100 2,769 Climbing FlightAware ADS-B
Thu 06:56:23 PM 39.7523 -75.2323 90° East 294 338 8,600 3,158 Climbing FlightAware ADS-B
Thu 06:56:32 PM 39.7533 -75.2157 86° East 298 343 9,100 2,710 Climbing FlightAware ADS-B
Thu 06:56:54 PM 39.7563 -75.1765 84° East 303 349 10,000 2,077 Climbing FlightAware ADS-B
Thu 06:57:24 PM 39.7607 -75.1199 84° East 322 371 10,900 1,377 Climbing FlightAware ADS-B
Thu 06:57:55 PM 39.7666 -75.0562 83° East 370 426 11,400 787 Climbing FlightAware ADS-B
Thu 06:58:25 PM 39.7734 -74.9872 83° East 385 443 11,700 393 Climbing FlightAware ADS-B
Thu 06:58:56 PM 39.7805 -74.9151 83° East 385 443 11,800 113 Climbing FlightAware ADS-B
Thu 06:59:18 PM 39.7848 -74.8665 83° East 384 442 11,800 226 Level FlightAware ADS-B
Thu 06:59:49 PM 39.7911 -74.7944 83° East 384 442 12,000 1,594 Climbing FlightAware ADS-B
Thu 07:00:22 PM 39.7975 -74.7158 84° East 404 465 13,500 2,625 Climbing FlightAware ADS-B
Thu 07:00:53 PM 39.8035 -74.6413 84° East 416 479 14,800 1,258 Climbing FlightAware ADS-B
Thu 07:01:24 PM 39.8100 -74.5634 84° East 420 483 14,800  Level FlightAware ADS-B
Thu 07:01:55 PM 39.8158 -74.4868 84° East 415 478 14,800 207 Level FlightAware ADS-B
Thu 07:02:22 PM 39.8191 -74.4186 86° East 417 480 15,000 1,607 Climbing FlightAware ADS-B
Thu 07:02:51 PM 39.8208 -74.3455 88° East 424 488 16,300 2,760 Climbing FlightAware ADS-B
Thu 07:03:12 PM 39.8316 -74.2932 75° East 428 493 17,300 2,571 Climbing FlightAware ADS-B
Thu 07:03:54 PM 39.8625 -74.1910 68° East 438 504 19,000 2,381 Climbing FlightAware ADS-B
Thu 07:04:15 PM 39.8778 -74.1406 68° East 444 511 19,800 1,929 Climbing FlightAware ADS-B
Thu 07:04:50 PM 39.9121 -74.0551 62° Northeast 460 529 20,800 1,652 Climbing FlightAware ADS-B
Thu 07:05:24 PM 39.9456 -73.9679 63° Northeast 478 550 21,700 1,853 Climbing FlightAware ADS-B
Thu 07:05:58 PM 39.9775 -73.8819 64° Northeast 484 557 22,900 2,000 Climbing FlightAware ADS-B
Thu 07:06:30 PM 40.0093 -73.7949 64° Northeast 491 565 23,900 1,680 Climbing FlightAware ADS-B
Thu 07:07:13 PM 40.0517 -73.6777 65° Northeast 506 582 25,000 1,443 Climbing FlightAware ADS-B
Thu 07:07:49 PM 40.0876 -73.5781 65° Northeast 519 597 25,800 1,343 Climbing FlightAware ADS-B
Thu 07:08:20 PM 40.1200 -73.4872 65° Northeast 526 605 26,500 1,475 Climbing FlightAware ADS-B
Thu 07:08:50 PM 40.1514 -73.3997 65° Northeast 538 619 27,300 1,810 Climbing FlightAware ADS-B
Thu 07:09:23 PM 40.1854 -73.3051 65° Northeast 536 617 28,400 1,970 Climbing FlightAware ADS-B
Thu 07:09:57 PM 40.2211 -73.2054 65° Northeast 535 616 29,500 1,685 Climbing FlightAware ADS-B
Thu 07:10:52 PM 40.2800 -73.0407 65° Northeast 541 623 30,900 1,565 Climbing FlightAware ADS-B
Thu 07:11:29 PM 40.3190 -72.9308 65° Northeast 542 624 31,900 1,583 Climbing FlightAware ADS-B
Thu 07:12:04 PM 40.3548 -72.8289 65° Northeast 543 625 32,800 1,342 Climbing FlightAware ADS-B
Thu 07:12:45 PM 40.3988 -72.7041 65° Northeast 548 631 33,600 1,151 Climbing FlightAware ADS-B
Thu 07:13:17 PM 40.4319 -72.6092 65° Northeast 550 633 34,200 1,037 Climbing FlightAware ADS-B
Thu 07:14:06 PM 40.4837 -72.4603 65° Northeast 554 638 35,000 600 Climbing FlightAware ADS-B
Thu 07:14:37 PM 40.5167 -72.3651 65° Northeast 560 644 35,000  Level FlightAware ADS-B
Thu 07:15:07 PM 40.5470 -72.2790 65° Northeast 555 639 35,000  Level FlightAware ADS-B
Thu 07:15:16 PM 40.5586 -72.2439 66° East 555 639 35,000  Level FlightAware ADS-B
Thu 07:15:46 PM 40.5902 -72.1522 66° East 555 639 35,000  Level FlightAware ADS-B
Thu 07:16:28 PM 40.6336 -72.0259 66° East 542 624 35,000  Level FlightAware ADS-B
Thu 07:17:18 PM 40.6842 -71.8776 66° East 538 619 35,000  Level FlightAware ADS-B
Thu 07:18:37 PM 40.7060 -71.8140 66° East 536 617 35,000  Level FlightAware ADS-B
Thu 07:19:47 PM 40.8240 -71.4660 66° East 538 619 35,000  Level FlightAware ADS-B
Thu 07:20:27 PM 40.8580 -71.3640 66° East 538 619 35,000  Level FlightAware ADS-B
Thu 07:21:07 PM 40.9220 -71.2110 61° Northeast 536 617 35,000  Level FlightAware ADS-B
Thu 07:21:52 PM 40.9780 -71.0820 60° Northeast 537 618 35,000  Level FlightAware ADS-B
Thu 07:22:32 PM 41.0270 -70.9670 61° Northeast 537 618 35,000  Level FlightAware ADS-B
Thu 07:23:12 PM 41.0750 -70.8570 60° Northeast 538 619 35,000  Level FlightAware ADS-B
Thu 07:23:57 PM 41.1340 -70.7220 60° Northeast 539 620 35,000  Level FlightAware ADS-B
Thu 07:24:37 PM 41.1820 -70.6100 60° Northeast 540 621 35,000  Level FlightAware ADS-B
Thu 07:25:17 PM 41.2340 -70.4910 60° Northeast 541 623 35,000  Level FlightAware ADS-B
Thu 07:26:02 PM 41.2890 -70.3630 60° Northeast 542 624 35,000  Level FlightAware ADS-B
Thu 07:26:37 PM 41.3320 -70.2600 61° Northeast 542 624 35,000  Level FlightAware ADS-B
Thu 07:27:22 PM 41.3850 -70.1370 60° Northeast 542 624 35,000  Level FlightAware ADS-B
Thu 07:27:57 PM 41.4300 -70.0310 60° Northeast 543 625 35,000  Level FlightAware ADS-B
Thu 07:28:47 PM 41.4950 -69.8770 61° Northeast 544 626 35,000  Level FlightAware ADS-B
Thu 07:29:27 PM 41.5460 -69.7570 60° Northeast 544 626 35,000  Level FlightAware ADS-B
Thu 07:30:02 PM 41.5860 -69.6600 61° Northeast 544 626 35,000  Level FlightAware ADS-B
Thu 07:30:47 PM 41.6430 -69.5240 61° Northeast 544 626 35,000  Level FlightAware ADS-B
Thu 07:31:37 PM 41.7040 -69.3740 61° Northeast 544 626 35,000  Level FlightAware ADS-B
Thu 07:32:17 PM 41.7490 -69.2670 61° Northeast 547 629 35,000  Level FlightAware ADS-B
Thu 07:32:57 PM 41.8000 -69.1420 61° Northeast 547 629 35,000  Level FlightAware ADS-B
Thu 07:33:32 PM 41.8440 -69.0330 62° Northeast 546 628 35,000  Level FlightAware ADS-B
Thu 07:34:27 PM 41.9100 -68.8700 61° Northeast 545 627 35,000  Level FlightAware ADS-B
Thu 07:35:07 PM 41.9560 -68.7580 61° Northeast 544 626 35,000  Level FlightAware ADS-B
Thu 07:35:47 PM 42.0070 -68.6330 61° Northeast 543 625 35,000  Level FlightAware ADS-B
Thu 07:36:32 PM 42.0600 -68.5040 61° Northeast 543 625 35,000  Level FlightAware ADS-B
Thu 07:37:12 PM 42.1080 -68.3840 62° Northeast 544 626 35,000  Level FlightAware ADS-B
Thu 07:37:57 PM 42.1610 -68.2500 62° Northeast 544 626 35,000  Level FlightAware ADS-B
Thu 07:38:37 PM 42.2100 -68.1250 62° Northeast 545 627 35,000  Level FlightAware ADS-B
Thu 07:39:17 PM 42.2560 -68.0070 62° Northeast 545 627 35,000  Level FlightAware ADS-B
Thu 07:39:57 PM 42.3040 -67.8870 62° Northeast 544 626 35,000  Level FlightAware ADS-B
Thu 07:40:42 PM 42.3570 -67.7520 62° Northeast 544 626 35,000  Level FlightAware ADS-B
Thu 07:41:27 PM 42.4070 -67.6230 62° Northeast 540 621 35,000  Level FlightAware ADS-B
Thu 07:42:07 PM 42.4560 -67.4970 62° Northeast 539 620 35,000  Level FlightAware ADS-B
Thu 07:42:42 PM 42.4950 -67.3970 62° Northeast 540 621 35,000  Level FlightAware ADS-B
Thu 07:43:32 PM 42.5560 -67.2400 62° Northeast 537 618 35,000  Level FlightAware ADS-B
Thu 07:44:02 PM 42.5860 -67.1630 62° Northeast 536 617 35,000  Level FlightAware ADS-B
Thu 07:44:57 PM 42.6410 -67.0150 63° Northeast 536 617 35,000  Level FlightAware ADS-B
Thu 07:45:37 PM 42.6790 -66.9130 63° Northeast 536 617 35,000  Level FlightAware ADS-B
Thu 07:46:17 PM 42.7180 -66.8100 63° Northeast 536 617 35,000  Level FlightAware ADS-B
Thu 07:46:57 PM 42.7560 -66.7080 63° Northeast 536 617 35,000  Level FlightAware ADS-B
Thu 07:47:42 PM 42.8330 -66.4940 64° Northeast 523 602 35,000  Level FlightAware ADS-B
Thu 07:48:22 PM 42.8770 -66.3720 64° Northeast 525 604 35,000  Level FlightAware ADS-B
Thu 07:49:07 PM 42.9240 -66.2400 64° Northeast 522 601 35,000  Level FlightAware ADS-B
Thu 07:49:47 PM 42.9660 -66.1200 64° Northeast 521 600 35,000  Level FlightAware ADS-B
Thu 07:50:32 PM 43.0130 -65.9880 64° Northeast 519 597 35,000  Level FlightAware ADS-B
Thu 07:51:12 PM 43.0540 -65.8710 64° Northeast 517 595 35,000  Level FlightAware ADS-B
Thu 07:51:52 PM 43.0960 -65.7520 64° Northeast 516 594 35,000  Level FlightAware ADS-B
Thu 07:52:37 PM 43.1420 -65.6210 64° Northeast 512 589 35,000  Level FlightAware ADS-B
Thu 07:53:17 PM 43.1830 -65.5020 65° Northeast 513 590 35,000  Level FlightAware ADS-B
Thu 07:54:02 PM 43.2290 -65.3710 64° Northeast 512 589 35,000  Level FlightAware ADS-B
Thu 07:54:42 PM 43.2700 -65.2510 65° Northeast 512 589 35,000  Level FlightAware ADS-B
Thu 07:55:22 PM 43.3100 -65.1340 65° Northeast 512 589 35,000  Level FlightAware ADS-B
Thu 07:56:07 PM 43.3550 -65.0010 65° Northeast 510 587 35,000  Level FlightAware ADS-B
Thu 07:56:47 PM 43.3960 -64.8820 65° Northeast 508 585 35,000  Level FlightAware ADS-B
Thu 07:57:27 PM 43.4350 -64.7670 65° Northeast 507 583 35,000  Level FlightAware ADS-B
Thu 07:58:12 PM 43.4810 -64.6320 65° Northeast 509 586 35,000  Level FlightAware ADS-B
Thu 07:58:52 PM 43.5190 -64.5180 65° Northeast 507 583 35,000  Level FlightAware ADS-B
Thu 07:59:37 PM 43.5590 -64.4010 65° Northeast 507 583 35,000  Level FlightAware ADS-B
Thu 08:00:17 PM 43.5930 -64.3010 65° Northeast 507 583 35,000  Level FlightAware ADS-B
Thu 08:00:57 PM 43.6260 -64.2020 65° Northeast 507 583 35,000  Level FlightAware ADS-B
Thu 08:01:37 PM 43.6600 -64.1020 65° Northeast 507 583 35,000  Level FlightAware ADS-B
Thu 08:02:17 PM 43.6940 -64.0020 65° Northeast 507 583 35,000  Level FlightAware ADS-B
Thu 08:03:07 PM 43.7360 -63.8770 65° Northeast 507 583 35,000  Level FlightAware ADS-B
Thu 08:03:47 PM 43.7690 -63.7770 65° Northeast 507 583 35,000  Level FlightAware ADS-B
Thu 08:04:27 PM 43.8030 -63.6770 65° Northeast 507 583 35,000  Level FlightAware ADS-B
Thu 08:05:07 PM 43.8370 -63.5760 65° Northeast 507 583 35,000  Level FlightAware ADS-B
Thu 08:05:47 PM 43.8710 -63.4760 65° Northeast 507 583 35,000  Level FlightAware ADS-B
Thu 08:06:37 PM 43.9130 -63.3510 65° Northeast 507 583 35,000  Level FlightAware ADS-B
Thu 08:07:17 PM 43.9460 -63.2500 66° East 507 583 35,000  Level FlightAware ADS-B
Thu 08:07:57 PM 43.9800 -63.1500 65° Northeast 507 583 35,000  Level FlightAware ADS-B
Thu 08:08:37 PM 44.0140 -63.0500 65° Northeast 507 583 35,000  Level FlightAware ADS-B
Thu 08:08:52 PM 44.0667 -62.7167 65° Northeast 510 587 35,000  Level Gander Center
Thu 08:09:18 PM 44.0833 -62.6500 71° East 500 575 35,000  Level Moncton Center
Thu 08:10:18 PM 44.1333 -62.4667 69° East 500 575 35,000  Level Moncton Center
Thu 08:11:18 PM 44.2000 -62.3000 61° Northeast 500 575 35,000  Level Moncton Center
Thu 08:12:18 PM 44.2500 -62.1167 69° East 500 575 35,000  Level Moncton Center
Thu 08:13:18 PM 44.3167 -61.9167 65° Northeast 500 575 35,000  Level Moncton Center
Thu 08:14:18 PM 44.3500 -61.7500 74° East 500 575 35,000  Level Moncton Center
Thu 08:15:18 PM 44.4167 -61.5667 63° Northeast 500 575 35,000  Level Moncton Center
Thu 08:16:18 PM 44.4667 -61.4000 67° East 500 575 35,000  Level Moncton Center
Thu 08:17:18 PM 44.5333 -61.2000 65° Northeast 500 575 35,000  Level Moncton Center
Thu 08:18:18 PM 44.5667 -61.0167 76° East 500 575 35,000  Level Moncton Center
Thu 08:19:18 PM 44.6333 -60.8333 63° Northeast 510 587 35,000  Level Moncton Center
Thu 08:19:52 PM 44.6667 -60.7500 61° Northeast 500 575 35,000  Level Gander Center
Thu 08:20:52 PM 44.7000 -60.5500 61° Northeast 500 575 35,000  Level Gander Center
Thu 08:21:52 PM 44.7500 -60.3667 69° East 500 575 35,000  Level Gander Center
Thu 08:22:18 PM 44.7833 -60.2667 68° East 500 575 35,000  Level Moncton Center
Thu 08:23:18 PM 44.8333 -60.1000 69° East 500 575 35,000  Level Moncton Center
Thu 08:23:52 PM 44.8667 -60.0167 69° East 500 575 35,000  Level Gander Center
Thu 08:24:18 PM 44.8833 -59.9167 69° East 500 575 35,000  Level Moncton Center
Thu 08:24:52 PM 44.9167 -59.8167 69° East 500 575 35,000  Level Gander Center
Thu 08:25:57 PM 44.9970 -59.7000 61° Northeast 498 573 35,000  Level FlightAware ADS-B
Thu 08:26:37 PM 45.0280 -59.5850 69° East 499 574 35,000  Level FlightAware ADS-B
Thu 08:27:17 PM 45.0570 -59.4820 68° East 499 574 35,000  Level FlightAware ADS-B
Thu 08:27:57 PM 45.0850 -59.3780 69° East 499 574 35,000  Level FlightAware ADS-B
Thu 08:28:47 PM 45.1200 -59.2490 69° East 499 574 35,000  Level FlightAware ADS-B
Thu 08:29:27 PM 45.1480 -59.1450 69° East 499 574 35,000  Level FlightAware ADS-B
Thu 08:30:07 PM 45.1760 -59.0410 69° East 499 574 35,000 1,600 Level FlightAware ADS-B
Thu 08:30:42 PM 45.2360 -58.8180 69° East 498 573 37,000 1,263 Climbing FlightAware ADS-B
Thu 08:31:42 PM 45.2810 -58.6490 69° East 495 570 37,000  Level FlightAware ADS-B
Thu 08:32:22 PM 45.3070 -58.5450 70° East 495 570 37,000  Level FlightAware ADS-B
Thu 08:33:12 PM 45.3400 -58.4150 70° East 495 570 37,000  Level FlightAware ADS-B
Thu 08:33:52 PM 45.3670 -58.3110 70° East 495 570 37,000  Level FlightAware ADS-B
Thu 08:34:32 PM 45.3940 -58.2060 70° East 495 570 37,000  Level FlightAware ADS-B
Thu 08:35:12 PM 45.4200 -58.1020 70° East 495 570 37,000  Level FlightAware ADS-B
Thu 08:35:52 PM 45.4470 -57.9980 70° East 495 570 37,000  Level FlightAware ADS-B
Thu 08:36:42 PM 45.4800 -57.8670 70° East 495 570 37,000  Level FlightAware ADS-B
Thu 08:37:22 PM 45.5070 -57.7630 70° East 495 570 37,000  Level FlightAware ADS-B
Thu 08:38:02 PM 45.5330 -57.6590 70° East 495 570 37,000  Level FlightAware ADS-B
Thu 08:38:42 PM 45.5600 -57.5540 70° East 495 570 37,000  Level FlightAware ADS-B
Thu 08:39:22 PM 45.5870 -57.4500 70° East 495 570 37,000  Level FlightAware ADS-B
Thu 08:40:12 PM 45.6200 -57.3190 70° East 495 570 37,000  Level FlightAware ADS-B
Thu 08:40:52 PM 45.7180 -56.9390 70° East 497 572 37,000  Level FlightAware ADS-B
Thu 08:41:42 PM 45.7550 -56.7890 70° East 498 573 37,000  Level FlightAware ADS-B
Thu 08:42:22 PM 45.7820 -56.6830 70° East 498 573 37,000  Level FlightAware ADS-B
Thu 08:43:12 PM 45.8150 -56.5510 70° East 498 573 37,000  Level FlightAware ADS-B
Thu 08:43:52 PM 45.8420 -56.4460 70° East 498 573 37,000  Level FlightAware ADS-B
Thu 08:44:32 PM 45.8690 -56.3400 70° East 498 573 37,000  Level FlightAware ADS-B
Thu 08:45:12 PM 45.8960 -56.2340 70° East 498 573 37,000  Level FlightAware ADS-B
Thu 08:46:02 PM 45.9290 -56.1020 70° East 498 573 37,000  Level FlightAware ADS-B
Thu 08:46:42 PM 45.9560 -55.9960 70° East 498 573 37,000  Level FlightAware ADS-B
Thu 08:47:22 PM 45.9830 -55.8900 70° East 498 573 37,000  Level FlightAware ADS-B
Thu 08:48:12 PM 46.0230 -55.5670 80° East 497 572 37,000  Level FlightAware ADS-B
Thu 08:48:52 PM 46.0460 -55.4590 73° East 497 572 37,000  Level FlightAware ADS-B
Thu 08:49:32 PM 46.0690 -55.3510 73° East 497 572 37,000  Level FlightAware ADS-B
Thu 08:50:12 PM 46.0920 -55.2430 73° East 497 572 37,000  Level FlightAware ADS-B
Thu 08:50:52 PM 46.1150 -55.1360 73° East 497 572 37,000  Level FlightAware ADS-B
Thu 08:51:32 PM 46.1370 -55.0280 74° East 497 572 37,000  Level FlightAware ADS-B
Thu 08:52:22 PM 46.1660 -54.8930 73° East 497 572 37,000  Level FlightAware ADS-B
Thu 08:53:02 PM 46.2130 -54.6370 75° East 487 560 37,000  Level FlightAware ADS-B
Thu 08:53:47 PM 46.2410 -54.4930 74° East 488 562 37,000  Level FlightAware ADS-B
Thu 08:54:27 PM 46.2660 -54.3650 74° East 489 563 37,000  Level FlightAware ADS-B
Thu 08:55:12 PM 46.2920 -54.2330 74° East 491 565 37,000  Level FlightAware ADS-B
Thu 08:55:52 PM 46.3180 -54.1020 74° East 492 566 37,000  Level FlightAware ADS-B
Thu 08:56:32 PM 46.3420 -53.9770 74° East 491 565 37,000  Level FlightAware ADS-B
Thu 08:57:17 PM 46.3700 -53.8300 75° East 491 565 37,000  Level FlightAware ADS-B
Thu 08:57:57 PM 46.3940 -53.7020 75° East 492 566 37,000  Level FlightAware ADS-B
Thu 08:58:37 PM 46.4180 -53.5770 74° East 492 566 37,000  Level FlightAware ADS-B
Thu 08:59:22 PM 46.4450 -53.4350 75° East 493 567 37,000  Level FlightAware ADS-B
Thu 09:00:02 PM 46.4680 -53.3090 75° East 494 568 37,000  Level FlightAware ADS-B
Thu 09:00:47 PM 46.4960 -53.1610 75° East 493 567 37,000  Level FlightAware ADS-B
Thu 09:01:27 PM 46.5190 -53.0340 75° East 494 568 37,000  Level FlightAware ADS-B
Thu 09:02:12 PM 46.5450 -52.8940 75° East 494 568 37,000 282 Level FlightAware ADS-B
Thu 09:02:52 PM 46.5680 -52.7670 75° East 489 563 37,400 525 Climbing FlightAware ADS-B
Thu 09:03:32 PM 46.5910 -52.6380 75° East 489 563 37,700 424 Climbing FlightAware ADS-B
Thu 09:04:17 PM 46.6170 -52.4920 75° East 495 570 38,000 212 Climbing FlightAware ADS-B
Thu 09:04:57 PM 46.6400 -52.3630 75° East 500 575 38,000  Level FlightAware ADS-B
Thu 09:05:37 PM 46.6630 -52.2330 75° East 506 582 38,000  Level FlightAware ADS-B
Thu 09:06:22 PM 46.6890 -52.0860 75° East 511 588 38,000  Level FlightAware ADS-B
Thu 09:07:02 PM 46.7120 -51.9500 76° East 512 589 38,000  Level FlightAware ADS-B
Thu 09:07:47 PM 46.7380 -51.8020 76° East 511 588 38,000  Level FlightAware ADS-B
Thu 09:08:27 PM 46.7600 -51.6710 76° East 511 588 38,000  Level FlightAware ADS-B
Thu 09:09:22 PM 46.7900 -51.4920 76° East 511 588 38,000  Level FlightAware ADS-B
Thu 09:10:02 PM 46.8100 -51.3780 76° East 511 588 38,000  Level FlightAware ADS-B
Thu 09:10:42 PM 46.8290 -51.2640 76° East 511 588 38,000  Level FlightAware ADS-B
Thu 09:11:22 PM 46.8490 -51.1500 76° East 511 588 38,000  Level FlightAware ADS-B
Thu 09:11:39 PM 46.8167 -50.9667 76° East 510 587 38,000  Level Gander Center
Thu 09:12:39 PM 46.8500 -50.7667 76° East 500 575 38,000  Level Gander Center
Thu 09:13:39 PM 46.8833 -50.5833 75° East 500 575 38,000  Level Gander Center
Thu 09:13:52 PM 46.8833 -50.5333 75° East 500 575 38,000  Level Gander Center
Thu 09:14:52 PM 46.9167 -50.3333 78° East 500 575 38,000  Level Gander Center
Thu 09:15:52 PM 46.9500 -50.1500 78° East 500 575 38,000  Level Gander Center
Thu 09:16:52 PM 46.9833 -49.9167 78° East 500 575 38,000  Level Gander Center
Thu 09:17:40 PM 47.0000 -50.0000 78° East 501 577 38,000  Level ETMS Enhanced Traffic Management System
Thu 09:18:57 PM 47.0910 -49.5760 75° East 505 581 38,000  Level FlightAware ADS-B
Thu 09:19:37 PM 47.1100 -49.4440 78° East 505 581 38,000  Level FlightAware ADS-B
Thu 09:20:22 PM 47.1310 -49.2950 78° East 507 583 38,000  Level FlightAware ADS-B
Thu 09:21:17 PM 47.1570 -49.1090 78° East 507 583 38,000  Level FlightAware ADS-B
Thu 09:22:02 PM 47.1760 -48.9740 78° East 507 583 38,000  Level FlightAware ADS-B
Thu 09:22:42 PM 47.1920 -48.8590 78° East 507 583 38,000  Level FlightAware ADS-B
Thu 09:23:22 PM 47.2090 -48.7450 78° East 507 583 38,000  Level FlightAware ADS-B
Thu 09:24:02 PM 47.2250 -48.6300 78° East 507 583 38,000  Level FlightAware ADS-B
Thu 09:24:42 PM 47.2420 -48.5150 78° East 507 583 38,000  Level FlightAware ADS-B
Thu 09:25:32 PM 47.2630 -48.3710 78° East 507 583 38,000  Level FlightAware ADS-B
Thu 09:26:12 PM 47.2790 -48.2560 78° East 507 583 38,000  Level FlightAware ADS-B
Thu 09:26:52 PM 47.2960 -48.1410 78° East 507 583 38,000  Level FlightAware ADS-B
Thu 09:27:32 PM 47.3120 -48.0260 78° East 507 583 38,000  Level FlightAware ADS-B
Thu 09:28:12 PM 47.3290 -47.9110 78° East 507 583 38,000  Level FlightAware ADS-B
Thu 09:28:52 PM 47.3460 -47.7960 78° East 507 583 38,000  Level FlightAware ADS-B
Thu 09:29:42 PM 47.3660 -47.6520 78° East 507 583 38,000  Level FlightAware ADS-B
Thu 09:30:22 PM 47.3830 -47.5370 78° East 507 583 38,000  Level FlightAware ADS-B
Thu 09:31:02 PM 47.3990 -47.4220 78° East 507 583 38,000  Level FlightAware ADS-B
Thu 09:31:52 PM 47.3833 -46.9000 78° East 510 587 38,000  Level Gander Center
Thu 09:32:52 PM 47.4000 -46.6833 83° East 510 587 38,000  Level Gander Center
Thu 09:35:00 PM 47.4370 -46.4623 76° East  Level FlightAware Approximate
Thu 09:42:00 PM 47.5949 -45.0720 81° East  Level FlightAware Approximate
Thu 09:43:00 PM 47.6147 -44.8725 82° East  Level FlightAware Approximate
Thu 09:44:00 PM 47.6342 -44.6729 82° East  Level FlightAware Approximate
Thu 09:45:00 PM 47.6534 -44.4731 82° East  Level FlightAware Approximate
Thu 09:46:00 PM 47.6721 -44.2731 82° East  Level FlightAware Approximate
Thu 09:47:00 PM 47.6906 -44.0730 82° East  Level FlightAware Approximate
Thu 09:48:00 PM 47.7087 -43.8728 82° East  Level FlightAware Approximate
Thu 09:49:00 PM 47.7268 -43.6725 82° East  Level FlightAware Approximate
Thu 09:50:00 PM 47.7448 -43.4721 82° East  Level FlightAware Approximate
Thu 09:51:00 PM 47.7625 -43.2716 82° East  Level FlightAware Approximate
Thu 09:52:00 PM 47.7798 -43.0709 83° East  Level FlightAware Approximate
Thu 09:53:00 PM 47.7967 -42.8701 83° East  Level FlightAware Approximate
Thu 09:54:00 PM 47.8134 -42.6692 83° East  Level FlightAware Approximate
Thu 09:55:00 PM 47.8296 -42.4682 83° East  Level FlightAware Approximate
Thu 09:56:00 PM 47.8455 -42.2670 83° East  Level FlightAware Approximate
Thu 09:57:00 PM 47.8611 -42.0657 83° East  Level FlightAware Approximate
Thu 09:58:00 PM 47.8763 -41.8643 84° East  Level FlightAware Approximate
Thu 09:59:00 PM 47.8912 -41.6627 84° East  Level FlightAware Approximate
Thu 10:00:00 PM 47.9057 -41.4611 84° East  Level FlightAware Approximate
Thu 10:01:00 PM 47.9198 -41.2593 84° East  Level FlightAware Approximate
Thu 10:02:00 PM 47.9336 -41.0575 84° East  Level FlightAware Approximate
Thu 10:03:00 PM 47.9470 -40.8555 84° East  Level FlightAware Approximate
Thu 10:04:00 PM 47.9601 -40.6534 84° East  Level FlightAware Approximate
Thu 10:05:00 PM 47.9729 -40.4512 85° East  Level FlightAware Approximate
Thu 10:06:00 PM 47.9853 -40.2490 85° East  Level FlightAware Approximate
Thu 10:06:00 PM 48.0000 -40.0000 69° East 503 579 38,000  Level ETMS Enhanced Traffic Management System
Thu 10:07:00 PM 47.9973 -40.0466 85° East  Level FlightAware Approximate
Thu 10:08:00 PM 48.0352 -39.8526 70° East  Level FlightAware Approximate
Thu 10:09:00 PM 48.0806 -39.6609 70° East  Level FlightAware Approximate
Thu 10:10:00 PM 48.1257 -39.4688 71° East  Level FlightAware Approximate
Thu 10:11:00 PM 48.1704 -39.2763 71° East  Level FlightAware Approximate
Thu 10:12:00 PM 48.2149 -39.0836 71° East  Level FlightAware Approximate
Thu 10:13:00 PM 48.3846 -38.4240 70° East 503 579 38,000  Level FlightAware Transoceanic
Thu 10:14:00 PM 48.4311 -38.2253 71° East 503 579 38,000  Level FlightAware Transoceanic
Thu 10:15:00 PM 48.4773 -38.0263 71° East 503 579 38,000  Level FlightAware Transoceanic
Thu 10:16:00 PM 48.5232 -37.8269 71° East 503 579 38,000  Level FlightAware Transoceanic
Thu 10:17:00 PM 48.5687 -37.6272 71° East 503 579 38,000  Level FlightAware Transoceanic
Thu 10:18:00 PM 48.6139 -37.4271 71° East 503 579 38,000  Level FlightAware Transoceanic
Thu 10:19:00 PM 48.6587 -37.2266 71° East 503 579 38,000  Level FlightAware Transoceanic
Thu 10:20:00 PM 48.7032 -37.0258 72° East 503 579 38,000  Level FlightAware Transoceanic
Thu 10:21:00 PM 48.7473 -36.8246 72° East 503 579 38,000  Level FlightAware Transoceanic
Thu 10:22:00 PM 48.7911 -36.6231 72° East 503 579 38,000  Level FlightAware Transoceanic
Thu 10:23:00 PM 48.8345 -36.4212 72° East 503 579 38,000  Level FlightAware Transoceanic
Thu 10:24:00 PM 48.8776 -36.2190 72° East 503 579 38,000  Level FlightAware Transoceanic
Thu 10:25:00 PM 48.9203 -36.0164 72° East 503 579 38,000  Level FlightAware Transoceanic
Thu 10:26:00 PM 48.9626 -35.8135 72° East 503 579 38,000  Level FlightAware Transoceanic
Thu 10:27:00 PM 49.0046 -35.6103 73° East 503 579 38,000  Level FlightAware Transoceanic
Thu 10:28:00 PM 49.0463 -35.4067 73° East 503 579 38,000  Level FlightAware Transoceanic
Thu 10:29:00 PM 49.0876 -35.2028 73° East 503 579 38,000  Level FlightAware Transoceanic
Thu 10:30:00 PM 49.1285 -34.9985 73° East 503 579 38,000  Level FlightAware Transoceanic
Thu 10:31:00 PM 49.1691 -34.7939 73° East 503 579 38,000  Level FlightAware Transoceanic
Thu 10:32:00 PM 49.2093 -34.5889 73° East 503 579 38,000  Level FlightAware Transoceanic
Thu 10:33:00 PM 49.2491 -34.3836 74° East 503 579 38,000  Level FlightAware Transoceanic
Thu 10:34:00 PM 49.2886 -34.1780 74° East 503 579 38,000  Level FlightAware Transoceanic
Thu 10:35:00 PM 49.3277 -33.9721 74° East 503 579 38,000  Level FlightAware Transoceanic
Thu 10:36:00 PM 49.3665 -33.7658 74° East 503 579 38,000  Level FlightAware Transoceanic
Thu 10:37:00 PM 49.4048 -33.5593 74° East 503 579 38,000  Level FlightAware Transoceanic
Thu 10:38:00 PM 49.4428 -33.3523 74° East 503 579 38,000  Level FlightAware Transoceanic
Thu 10:39:00 PM 49.4805 -33.1451 74° East 503 579 38,000  Level FlightAware Transoceanic
Thu 10:40:00 PM 49.5177 -32.9376 75° East 503 579 38,000  Level FlightAware Transoceanic
Thu 10:41:00 PM 49.5546 -32.7297 75° East 503 579 38,000  Level FlightAware Transoceanic
Thu 10:42:00 PM 49.5912 -32.5216 75° East 503 579 38,000  Level FlightAware Transoceanic
Thu 10:43:00 PM 49.6273 -32.3131 75° East 503 579 38,000  Level FlightAware Transoceanic
Thu 10:44:00 PM 49.6631 -32.1043 75° East 503 579 38,000  Level FlightAware Transoceanic
Thu 10:45:00 PM 49.6985 -31.8952 75° East 503 579 38,000  Level FlightAware Transoceanic
Thu 10:46:00 PM 49.7335 -31.6858 76° East 503 579 38,000  Level FlightAware Transoceanic
Thu 10:47:00 PM 49.7682 -31.4761 76° East 503 579 38,000  Level FlightAware Transoceanic
Thu 10:48:00 PM 49.8024 -31.2661 76° East 503 579 38,000  Level FlightAware Transoceanic
Thu 10:49:00 PM 49.8363 -31.0558 76° East 503 579 38,000  Level FlightAware Transoceanic
Thu 10:50:00 PM 49.8698 -30.8452 76° East 503 579 38,000  Level FlightAware Transoceanic
Thu 10:51:00 PM 49.9029 -30.6343 76° East 503 579 38,000  Level FlightAware Transoceanic
Thu 10:52:00 PM 49.9357 -30.4232 77° East 503 579 38,000  Level FlightAware Transoceanic
Thu 10:53:00 PM 49.9680 -30.2117 77° East 503 579 38,000  Level FlightAware Transoceanic
Thu 10:54:00 PM 49.9991 -30.0059 77° East  Level FlightAware Approximate
Thu 10:55:00 PM 50.0298 -29.7997 77° East  Level FlightAware Approximate
Thu 10:55:02 PM 50.0000 -30.0000 86° East 525 604 38,000  Level ETMS Enhanced Traffic Management System
Thu 10:56:00 PM 50.0073 -29.8008 87° East  Level FlightAware Approximate
Thu 10:57:00 PM 50.0146 -29.5896 87° East  Level FlightAware Approximate
Thu 10:58:00 PM 50.0216 -29.3782 87° East  Level FlightAware Approximate
Thu 10:59:00 PM 50.0282 -29.1668 87° East  Level FlightAware Approximate
Thu 11:00:00 PM 50.0344 -28.9554 87° East  Level FlightAware Approximate
Thu 11:01:00 PM 50.0639 -28.1847 88° East 525 604 38,000  Level FlightAware Transoceanic
Thu 11:02:00 PM 50.0700 -27.9574 88° East 525 604 38,000  Level FlightAware Transoceanic
Thu 11:03:00 PM 50.0755 -27.7301 88° East 525 604 38,000  Level FlightAware Transoceanic
Thu 11:04:00 PM 50.0806 -27.5028 88° East 525 604 38,000  Level FlightAware Transoceanic
Thu 11:05:00 PM 50.0853 -27.2754 88° East 525 604 38,000  Level FlightAware Transoceanic
Thu 11:06:00 PM 50.0895 -27.0480 88° East 525 604 38,000  Level FlightAware Transoceanic
Thu 11:07:00 PM 50.0933 -26.8205 89° East 525 604 38,000  Level FlightAware Transoceanic
Thu 11:08:00 PM 50.0966 -26.5931 89° East 525 604 38,000  Level FlightAware Transoceanic
Thu 11:09:00 PM 50.0995 -26.3655 89° East 525 604 38,000  Level FlightAware Transoceanic
Thu 11:10:00 PM 50.1020 -26.1380 89° East 525 604 38,000  Level FlightAware Transoceanic
Thu 11:11:00 PM 50.1040 -25.9104 89° East 525 604 38,000  Level FlightAware Transoceanic
Thu 11:12:00 PM 50.1055 -25.6828 89° East 525 604 38,000  Level FlightAware Transoceanic
Thu 11:13:00 PM 50.1066 -25.4552 90° East 525 604 38,000  Level FlightAware Transoceanic
Thu 11:14:00 PM 50.1073 -25.2276 90° East 525 604 38,000  Level FlightAware Transoceanic
Thu 11:15:00 PM 50.1075 -25.0000 90° East 525 604 38,000  Level FlightAware Transoceanic
Thu 11:16:00 PM 50.1073 -24.7724 90° East 525 604 38,000  Level FlightAware Transoceanic
Thu 11:17:00 PM 50.1066 -24.5448 90° East 525 604 38,000  Level FlightAware Transoceanic
Thu 11:18:00 PM 50.1055 -24.3172 91° East 525 604 38,000  Level FlightAware Transoceanic
Thu 11:19:00 PM 50.1040 -24.0896 91° East 525 604 38,000  Level FlightAware Transoceanic
Thu 11:20:00 PM 50.1020 -23.8620 91° East 525 604 38,000  Level FlightAware Transoceanic
Thu 11:21:00 PM 50.0995 -23.6345 91° East 525 604 38,000  Level FlightAware Transoceanic
Thu 11:22:00 PM 50.0966 -23.4069 91° East 525 604 38,000  Level FlightAware Transoceanic
Thu 11:23:00 PM 50.0933 -23.1795 91° East 525 604 38,000  Level FlightAware Transoceanic
Thu 11:24:00 PM 50.0895 -22.9520 92° East 525 604 38,000  Level FlightAware Transoceanic
Thu 11:25:00 PM 50.0853 -22.7246 92° East 525 604 38,000  Level FlightAware Transoceanic
Thu 11:26:00 PM 50.0806 -22.4972 92° East 525 604 38,000  Level FlightAware Transoceanic
Thu 11:27:00 PM 50.0755 -22.2699 92° East 525 604 38,000  Level FlightAware Transoceanic
Thu 11:28:00 PM 50.0700 -22.0426 92° East 525 604 38,000  Level FlightAware Transoceanic
Thu 11:29:00 PM 50.0639 -21.8153 92° East 525 604 38,000  Level FlightAware Transoceanic
Thu 11:30:00 PM 50.0575 -21.5882 93° East 525 604 38,000  Level FlightAware Transoceanic
Thu 11:31:00 PM 50.0506 -21.3611 93° East 525 604 38,000  Level FlightAware Transoceanic
Thu 11:32:00 PM 50.0433 -21.1340 93° East 525 604 38,000  Level FlightAware Transoceanic
Thu 11:33:00 PM 50.0355 -20.9071 93° East 525 604 38,000  Level FlightAware Transoceanic
Thu 11:34:00 PM 50.0273 -20.6802 93° East 525 604 38,000  Level FlightAware Transoceanic
Thu 11:35:00 PM 50.0186 -20.4534 93° East 525 604 38,000  Level FlightAware Transoceanic
Thu 11:36:00 PM 50.0095 -20.2266 94° East 525 604 38,000 18 Level FlightAware Transoceanic
Thu 11:37:00 PM 50.0007 -20.0155 94° East  Level FlightAware Approximate
Thu 11:38:00 PM 49.9914 -19.8045 94° East  Level FlightAware Approximate
Thu 11:39:00 PM 50.0013 -19.8196 89° East  Level FlightAware Approximate
Thu 11:40:00 PM 50.0025 -19.6081 89° East  Level FlightAware Approximate
Thu 11:41:00 PM 50.0034 -19.3956 90° East  Level FlightAware Approximate
Thu 11:42:00 PM 50.0038 -19.1831 90° East  Level FlightAware Approximate
Thu 11:43:00 PM 50.0039 -18.9705 90° East  Level FlightAware Approximate
Thu 11:44:00 PM 50.0035 -18.7580 90° East  Level FlightAware Approximate
Thu 11:45:00 PM 50.0028 -18.5455 90° East  Level FlightAware Approximate
Thu 11:46:00 PM 50.0017 -18.3330 90° East  Level FlightAware Approximate
Thu 11:47:00 PM 50.0002 -18.1205 91° East  Level FlightAware Approximate
Thu 11:48:00 PM 49.9983 -17.9080 91° East  Level FlightAware Approximate
Thu 11:49:00 PM 49.9960 -17.6956 91° East  Level FlightAware Approximate
Thu 11:50:00 PM 49.9933 -17.4831 91° East  Level FlightAware Approximate
Thu 11:51:00 PM 49.9903 -17.2707 91° East  Level FlightAware Approximate
Thu 11:52:00 PM 49.9868 -17.0583 91° East  Level FlightAware Approximate
Thu 11:53:00 PM 49.9830 -16.8459 92° East  Level FlightAware Approximate
Thu 11:54:00 PM 49.9788 -16.6336 92° East  Level FlightAware Approximate
Thu 11:55:00 PM 49.9742 -16.4213 92° East  Level FlightAware Approximate
Thu 11:56:00 PM 49.9692 -16.2091 92° East  Level FlightAware Approximate
Thu 11:57:00 PM 49.9638 -15.9969 92° East  Level FlightAware Approximate
Thu 11:58:00 PM 49.9580 -15.7848 92° East  Level FlightAware Approximate
Thu 11:59:00 PM 49.9519 -15.5727 93° East  Level FlightAware Approximate
Fri 12:00:00 AM 49.9454 -15.3606 93° East  Level FlightAware Approximate
Fri 12:01:00 AM 49.9384 -15.1487 93° East  Level FlightAware Approximate
Fri 12:02:00 AM 49.9313 -14.9367 93° East  Level FlightAware Approximate
Fri 12:03:00 AM 49.9244 -14.7248 93° East  Level FlightAware Approximate
Fri 12:04:00 AM 49.9170 -14.5129 93° East  Level FlightAware Approximate
Fri 12:05:00 AM 49.9093 -14.3012 93° East  Level FlightAware Approximate
Fri 12:06:00 AM 49.9012 -14.0895 93° East  Level FlightAware Approximate
Fri 12:07:00 AM 49.8927 -13.8778 93° East  Level FlightAware Approximate
Fri 12:08:00 AM 49.8838 -13.6663 94° East  Level FlightAware Approximate
Fri 12:09:00 AM 49.8745 -13.4548 94° East  Level FlightAware Approximate
Fri 12:10:00 AM 49.8648 -13.2434 94° East  Level FlightAware Approximate
Fri 12:11:00 AM 49.8548 -13.0320 94° East  Level FlightAware Approximate
Fri 12:12:00 AM 49.8444 -12.8208 94° East  Level FlightAware Approximate
Fri 12:13:00 AM 49.8336 -12.6097 94° East  Level FlightAware Approximate
Fri 12:14:00 AM 49.8224 -12.3986 95° East  Level FlightAware Approximate
Fri 12:15:00 AM 49.8108 -12.1877 95° East  Level FlightAware Approximate
Fri 12:16:00 AM 49.7989 -11.9769 95° East  Level FlightAware Approximate
Fri 12:17:00 AM 49.7865 -11.7661 95° East  Level FlightAware Approximate
Fri 12:18:00 AM 49.7738 -11.5555 95° East  Level FlightAware Approximate
Fri 12:19:00 AM 49.7607 -11.3450 95° East  Level FlightAware Approximate
Fri 12:20:00 AM 49.7472 -11.1346 96° East  Level FlightAware Approximate
Fri 12:21:00 AM 49.7333 -10.9243 96° East  Level FlightAware Approximate
Fri 12:22:00 AM 49.7191 -10.7142 96° East  Level FlightAware Approximate
Fri 12:23:00 AM 49.7045 -10.5042 96° East  Level FlightAware Approximate
Fri 12:24:00 AM 49.6895 -10.2942 96° East  Level FlightAware Approximate
Fri 12:25:00 AM 49.6741 -10.0845 96° East  Level FlightAware Approximate
Fri 12:26:00 AM 49.6583 -9.8748 97° East  Level FlightAware Approximate
Fri 12:27:00 AM 49.6422 -9.6653 97° East  Level FlightAware Approximate
Fri 12:28:00 AM 49.6257 -9.4560 97° East  Level FlightAware Approximate
Fri 12:29:00 AM 49.6088 -9.2468 97° East  Level FlightAware Approximate
Fri 12:30:00 AM 49.5915 -9.0377 97° East  Level FlightAware Approximate
Fri 12:31:00 AM 49.5739 -8.8288 97° East  Level FlightAware Approximate
Fri 12:31:32 AM 49.6090 -8.9340 98° East 469 540 39,000  Level FlightAware ADS-B
Fri 12:32:00 AM 49.5558 -8.6200 98° East  Level FlightAware Approximate
Fri 12:32:12 AM 49.5940 -8.8000 100° East 465 535 39,000  Level FlightAware ADS-B
Fri 12:32:52 AM 49.5820 -8.6770 99° East 464 534 39,000  Level FlightAware ADS-B
Fri 12:33:32 AM 49.5670 -8.5330 99° East 463 533 39,000  Level FlightAware ADS-B
Fri 12:34:17 AM 49.5520 -8.3880 99° East 464 534 39,000  Level FlightAware ADS-B
Fri 12:35:02 AM 49.5360 -8.2410 99° East 465 535 39,000  Level FlightAware ADS-B
Fri 12:35:42 AM 49.5230 -8.1120 99° East 465 535 39,000  Level FlightAware ADS-B
Fri 12:36:22 AM 49.5080 -7.9780 100° East 465 535 39,000  Level FlightAware ADS-B
Fri 12:37:07 AM 49.4990 -7.8410 96° East 464 534 39,000  Level FlightAware ADS-B
Fri 12:37:47 AM 49.4930 -7.7000 94° East 463 533 39,000  Level FlightAware ADS-B
Fri 12:38:27 AM 49.4870 -7.5700 94° East 465 535 39,000  Level FlightAware ADS-B
Fri 12:39:12 AM 49.4800 -7.4210 94° East 465 535 39,000  Level FlightAware ADS-B
Fri 12:39:52 AM 49.4740 -7.2870 94° East 466 536 39,000  Level FlightAware ADS-B
Fri 12:40:32 AM 49.4670 -7.1540 95° East 467 537 39,000  Level FlightAware ADS-B
Fri 12:41:17 AM 49.4590 -7.0070 95° East 466 536 39,000  Level FlightAware ADS-B
Fri 12:41:57 AM 49.4520 -6.8730 95° East 466 536 39,000  Level FlightAware ADS-B
Fri 12:42:42 AM 49.4440 -6.7260 95° East 466 536 39,000  Level FlightAware ADS-B
Fri 12:43:22 AM 49.4370 -6.5920 95° East 466 536 39,000  Level FlightAware ADS-B
Fri 12:44:02 AM 49.4300 -6.4630 95° East 466 536 39,000  Level FlightAware ADS-B
Fri 12:44:47 AM 49.4210 -6.3120 95° East 466 536 39,000  Level FlightAware ADS-B
Fri 12:45:27 AM 49.4140 -6.1820 95° East 466 536 39,000  Level FlightAware ADS-B
Fri 12:46:12 AM 49.4050 -6.0350 95° East 467 537 39,000  Level FlightAware ADS-B
Fri 12:46:52 AM 49.3970 -5.9020 95° East 468 539 39,000  Level FlightAware ADS-B
Fri 12:47:37 AM 49.3880 -5.7550 95° East 467 537 39,000  Level FlightAware ADS-B
Fri 12:48:17 AM 49.3800 -5.6210 95° East 467 537 39,000  Level FlightAware ADS-B
Fri 12:48:57 AM 49.3720 -5.4900 95° East 468 539 39,000  Level FlightAware ADS-B
Fri 12:49:42 AM 49.3620 -5.3420 96° East 467 537 39,000  Level FlightAware ADS-B
Fri 12:50:22 AM 49.3540 -5.2090 95° East 467 537 39,000  Level FlightAware ADS-B
Fri 12:51:02 AM 49.3450 -5.0780 96° East 469 540 39,000  Level FlightAware ADS-B
Fri 12:51:47 AM 49.3350 -4.9270 96° East 469 540 39,000  Level FlightAware ADS-B
Fri 12:52:27 AM 49.3260 -4.7970 96° East 469 540 39,000  Level FlightAware ADS-B
Fri 12:53:12 AM 49.3150 -4.6470 96° East 469 540 39,000  Level FlightAware ADS-B
Fri 12:53:52 AM 49.3060 -4.5170 96° East 468 539 39,000  Level FlightAware ADS-B
Fri 12:54:32 AM 49.2970 -4.3870 96° East 467 537 39,000  Level FlightAware ADS-B
Fri 12:55:17 AM 49.2860 -4.2370 96° East 466 536 39,000  Level FlightAware ADS-B
Fri 12:55:57 AM 49.2770 -4.1090 96° East 466 536 39,000  Level FlightAware ADS-B
Fri 12:56:42 AM 49.2650 -3.9580 97° East 466 536 39,000  Level FlightAware ADS-B
Fri 12:57:22 AM 49.2560 -3.8370 96° East 465 535 39,000  Level FlightAware ADS-B
Fri 12:58:07 AM 49.2440 -3.6800 97° East 464 534 39,000  Level FlightAware ADS-B
Fri 12:58:47 AM 49.2330 -3.5540 98° East 464 534 39,000  Level FlightAware ADS-B
Fri 12:59:27 AM 49.2220 -3.4180 97° East 464 534 39,000  Level FlightAware ADS-B
Fri 01:00:12 AM 49.2100 -3.2710 97° East 463 533 39,000  Level FlightAware ADS-B
Fri 01:00:52 AM 49.1990 -3.1410 97° East 463 533 39,000  Level FlightAware ADS-B
Fri 01:01:37 AM 49.1870 -2.9960 97° East 464 534 39,000  Level FlightAware ADS-B
Fri 01:02:17 AM 49.1750 -2.8650 98° East 463 533 39,000  Level FlightAware ADS-B
Fri 01:03:02 AM 49.1630 -2.7200 97° East 464 534 39,000  Level FlightAware ADS-B
Fri 01:03:42 AM 49.1510 -2.5880 98° East 464 534 39,000  Level FlightAware ADS-B
Fri 01:04:22 AM 49.1400 -2.4610 97° East 465 535 39,000  Level FlightAware ADS-B
Fri 01:05:07 AM 49.1270 -2.3170 98° East 464 534 39,000  Level FlightAware ADS-B
Fri 01:05:37 AM 49.1170 -2.2160 99° East 464 534 39,000  Level FlightAware ADS-B
Fri 01:06:32 AM 49.1000 -2.0360 98° East 463 533 39,000  Level FlightAware ADS-B
Fri 01:07:12 AM 49.0880 -1.9090 98° East 463 533 39,000  Level FlightAware ADS-B
Fri 01:07:52 AM 49.0760 -1.7790 98° East 462 532 39,000  Level FlightAware ADS-B
Fri 01:08:37 AM 49.0620 -1.6300 98° East 462 532 39,000  Level FlightAware ADS-B
Fri 01:09:17 AM 49.0510 -1.5100 98° East 461 531 39,000  Level FlightAware ADS-B
Fri 01:09:28 AM 49.0462 -1.4634 99° East 39,000  Level FlightAware ADS-B
Fri 01:10:37 AM 49.0250 -1.2530 99° East 462 532 39,000  Level FlightAware ADS-B
Fri 01:11:07 AM 49.0160 -1.1580 98° East 462 532 39,000  Level FlightAware ADS-B
Fri 01:11:57 AM 49.0000 -0.9960 99° East 462 532 39,000  Level FlightAware ADS-B
Fri 01:12:42 AM 48.9850 -0.8530 99° East 463 533 39,000  Level FlightAware ADS-B
Fri 01:13:22 AM 48.9710 -0.7220 99° East 464 534 39,000  Level FlightAware ADS-B
Fri 01:14:02 AM 48.9590 -0.5920 98° East 464 534 39,000  Level FlightAware ADS-B
Fri 01:14:47 AM 48.9480 -0.4430 96° East 465 535 39,000  Level FlightAware ADS-B
Fri 01:15:27 AM 48.9380 -0.3160 97° East 466 536 39,000  Level FlightAware ADS-B
Fri 01:16:12 AM 48.9260 -0.1690 97° East 466 536 39,000  Level FlightAware ADS-B
Fri 01:16:52 AM 48.9150 -0.0390 97° East 466 536 39,000  Level FlightAware ADS-B
Fri 01:17:32 AM 48.9040 0.0910 97° East 465 535 39,000  Level FlightAware ADS-B
Fri 01:18:17 AM 48.8910 0.2340 98° East 465 535 39,000  Level FlightAware ADS-B
Fri 01:18:57 AM 48.8800 0.3610 97° East 466 536 39,000  Level FlightAware ADS-B
Fri 01:19:37 AM 48.8690 0.4910 97° East 466 536 39,000  Level FlightAware ADS-B
Fri 01:20:22 AM 48.8560 0.6400 97° East 466 536 39,000  Level FlightAware ADS-B
Fri 01:21:02 AM 48.8450 0.7680 97° East 466 536 39,000  Level FlightAware ADS-B
Fri 01:21:47 AM 48.8330 0.9030 98° East 467 537 39,000  Level FlightAware ADS-B
Fri 01:22:27 AM 48.8220 1.0430 97° East 467 537 39,000  Level FlightAware ADS-B
Fri 01:23:12 AM 48.8090 1.1900 98° East 469 540 39,000  Level FlightAware ADS-B
Fri 01:23:52 AM 48.8000 1.3130 96° East 470 541 39,000  Level FlightAware ADS-B
Fri 01:24:32 AM 48.7900 1.4420 97° East 470 541 39,000  Level FlightAware ADS-B
Fri 01:25:17 AM 48.7780 1.5940 97° East 472 543 39,000  Level FlightAware ADS-B
Fri 01:25:57 AM 48.7680 1.7260 97° East 472 543 39,000  Level FlightAware ADS-B
Fri 01:26:37 AM 48.7580 1.8570 97° East 471 542 39,000  Level FlightAware ADS-B
Fri 01:27:22 AM 48.7460 2.0010 97° East 472 543 39,000  Level FlightAware ADS-B
Fri 01:28:02 AM 48.7340 2.1370 98° East 472 543 39,000  Level FlightAware ADS-B
Fri 01:28:47 AM 48.7220 2.2880 97° East 473 544 39,000  Level FlightAware ADS-B
Fri 01:29:03 AM 48.7168 2.3452 98° East 474 545 39,000  Level FlightAware ADS-B
Fri 01:29:36 AM 48.7077 2.4551 97° East 475 547 39,000  Level FlightAware ADS-B
Fri 01:30:07 AM 48.6991 2.5576 97° East 476 548 39,000  Level FlightAware ADS-B
Fri 01:30:39 AM 48.6900 2.6621 97° East 476 548 39,000  Level FlightAware ADS-B
Fri 01:30:44 AM 48.6883 2.6777 99° East 475 547 39,000  Level FlightAware ADS-B
Fri 01:31:14 AM 48.6744 2.7763 102° East 475 547 39,000  Level FlightAware ADS-B
Fri 01:31:44 AM 48.6603 2.8732 102° East 475 547 39,000  Level FlightAware ADS-B
Fri 01:32:15 AM 48.6468 2.9718 102° East 475 547 39,000  Level FlightAware ADS-B
Fri 01:32:45 AM 48.6334 3.0708 102° East 474 545 39,000  Level FlightAware ADS-B
Fri 01:33:27 AM 48.6190 3.1820 101° East 471 542 39,000  Level FlightAware ADS-B
Fri 01:33:32 AM 48.6133 3.2229 102° East 473 544 39,000  Level FlightAware ADS-B
Fri 01:34:07 AM 48.6000 3.3200 102° East 470 541 39,000  Level FlightAware ADS-B
Fri 01:34:52 AM 48.5820 3.4530 102° East 471 542 39,000  Level FlightAware ADS-B
Fri 01:35:32 AM 48.5630 3.5930 102° East 470 541 39,000  Level FlightAware ADS-B
Fri 01:36:12 AM 48.5450 3.7140 103° East 470 541 39,000  Level FlightAware ADS-B
Fri 01:37:34 AM 48.5045 3.9990 102° East 472 543 39,000  Level FlightAware ADS-B
Fri 01:38:27 AM 48.4790 4.1460 105° East 470 541 39,000  Level FlightAware ADS-B
Fri 01:39:17 AM 48.4430 4.3030 109° East 468 539 39,000  Level FlightAware ADS-B
Fri 01:39:57 AM 48.4150 4.4220 109° East 470 541 39,000  Level FlightAware ADS-B
Fri 01:40:32 AM 48.3870 4.5380 110° East 471 542 39,000  Level FlightAware ADS-B
Fri 01:41:27 AM 48.3460 4.7110 110° East 471 542 39,000  Level FlightAware ADS-B
Fri 01:42:12 AM 48.3110 4.8540 110° East 472 543 39,000 -75 Level FlightAware ADS-B
Fri 01:42:47 AM 48.2880 4.9470 110° East 474 545 38,900 -975 Descending FlightAware ADS-B
Fri 01:43:32 AM 48.2520 5.0950 110° East 472 543 37,700 -1,600 Descending FlightAware ADS-B
Fri 01:44:17 AM 48.2180 5.2320 110° East 464 534 36,500 -1,875 Descending FlightAware ADS-B
Fri 01:44:52 AM 48.1930 5.3330 110° East 456 525 35,200 -2,400 Descending FlightAware ADS-B
Fri 01:45:37 AM 48.1600 5.4660 110° East 443 510 33,300 -2,533 Descending FlightAware ADS-B
Fri 01:46:22 AM 48.1300 5.5840 111° Southeast 444 511 31,400 -1,624 Descending FlightAware ADS-B
Fri 01:47:02 AM 48.1000 5.7050 110° East 437 503 31,000 -706 Descending FlightAware ADS-B
Fri 01:47:47 AM 48.0670 5.8360 111° Southeast 448 516 30,400 -918 Descending FlightAware ADS-B
Fri 01:48:27 AM 48.0370 5.9520 111° Southeast 446 513 29,700 -988 Descending FlightAware ADS-B
Fri 01:49:12 AM 48.0040 6.0810 111° Southeast 442 509 29,000 -988 Descending FlightAware ADS-B
Fri 01:49:52 AM 47.9740 6.1950 111° Southeast 435 501 28,300 -706 Descending FlightAware ADS-B
Fri 01:50:37 AM 47.9430 6.3190 110° East 428 493 28,000 -212 Descending FlightAware ADS-B
Fri 01:51:17 AM 47.9130 6.4320 112° Southeast 436 502 28,000  Level FlightAware ADS-B
Fri 01:51:57 AM 47.8840 6.5410 112° Southeast 439 505 28,000 -212 Level FlightAware ADS-B
Fri 01:52:42 AM 47.8490 6.6710 112° Southeast 438 504 27,700 -1,412 Descending FlightAware ADS-B
Fri 01:53:22 AM 47.8210 6.7780 111° Southeast 436 502 26,000 -2,965 Descending FlightAware ADS-B
Fri 01:54:07 AM 47.7860 6.9080 112° Southeast 437 503 23,500 -3,035 Descending FlightAware ADS-B
Fri 01:54:47 AM 47.7570 7.0190 111° Southeast 428 493 21,700 -2,475 Descending FlightAware ADS-B
Fri 01:55:27 AM 47.7280 7.1260 112° Southeast 410 472 20,200 -1,835 Descending FlightAware ADS-B
Fri 01:56:12 AM 47.6970 7.2390 112° Southeast 397 457 19,100 -847 Descending FlightAware ADS-B
Fri 01:56:52 AM 47.6690 7.3430 112° Southeast 397 457 19,000 -71 Descending FlightAware ADS-B
Fri 01:57:37 AM 47.6400 7.4500 112° Southeast 351 404 19,000 -353 Level FlightAware ADS-B
Fri 01:58:17 AM 47.6160 7.5350 113° Southeast 326 375 18,500 -675 Descending FlightAware ADS-B
Fri 01:58:57 AM 47.5960 7.6130 111° Southeast 306 352 18,100 -565 Descending FlightAware ADS-B
Fri 01:59:42 AM 47.5760 7.6980 109° East 280 322 17,700 -706 Descending FlightAware ADS-B
Fri 02:00:22 AM 47.5580 7.7730 110° East 267 307 17,100 -988 Descending FlightAware ADS-B
Fri 02:01:07 AM 47.5400 7.8490 109° East 259 298 16,300 -1,129 Descending FlightAware ADS-B
Fri 02:01:47 AM 47.5230 7.9170 110° East 258 297 15,500 -1,125 Descending FlightAware ADS-B
Fri 02:02:27 AM 47.5080 7.9830 109° East 257 296 14,800 -988 Descending FlightAware ADS-B
Fri 02:03:12 AM 47.4890 8.0590 110° East 255 293 14,100 -847 Descending FlightAware ADS-B
Fri 02:03:52 AM 47.4730 8.1250 110° East 245 282 13,600 -720 Descending FlightAware ADS-B
Fri 02:04:02 AM 47.4680 8.1390 118° Southeast 247 284 13,500 -800 Descending FlightAware ADS-B
Fri 02:04:37 AM 47.4350 8.1640 153° Southeast 262 302 13,000 -800 Descending FlightAware ADS-B
Fri 02:05:02 AM 47.4080 8.1490 201° Southwest 267 307 12,700 -750 Descending FlightAware ADS-B
Fri 02:05:17 AM 47.3960 8.1200 239° Southwest 274 315 12,500 -764 Descending FlightAware ADS-B
Fri 02:05:57 AM 47.3860 8.0470 259° West 272 313 12,000 -776 Descending FlightAware ADS-B
Fri 02:06:42 AM 47.4050 7.9760 292° West 264 304 11,400 -800 Descending FlightAware ADS-B
Fri 02:06:57 AM 47.4210 7.9700 346° North 258 297 11,200 -900 Descending FlightAware ADS-B
Fri 02:07:22 AM 47.4480 7.9820 17° North 241 277 10,800 -900 Descending FlightAware ADS-B
Fri 02:07:37 AM 47.4570 8.0030 58° Northeast 237 273 10,600 -800 Descending FlightAware ADS-B
Fri 02:07:52 AM 47.4580 8.0280 87° East 236 272 10,400 -619 Descending FlightAware ADS-B
Fri 02:10:00 AM 47.4637 8.4589 113° Southeast  Level Estimated
Fri 02:10:12 AM 47.4860 8.1940 113° Southeast 235 270 9,000  Level FlightAware ADS-B
Fri 02:10:37 AM 47.5130 8.1830 345° North 238 274 9,000 -171 Level FlightAware ADS-B
Fri 02:11:22 AM 47.5600 8.1650 346° North 234 269 8,800 -780 Descending FlightAware ADS-B
Fri 02:12:17 AM 47.6140 8.1730 North 218 251 7,700 -847 Descending FlightAware ADS-B
Fri 02:12:47 AM 47.6280 8.2110 61° Northeast 223 257 7,600 -480 Descending FlightAware ADS-B
Fri 02:13:07 AM 47.6330 8.2410 76° East 226 260 7,300 -960 Descending FlightAware ADS-B
Fri 02:15:00 AM 47.4712 8.5373 113° Southeast  Level Estimated
Fri 02:15:17 AM 47.6050 8.3920 113° Southeast 169 194 5,200  Level FlightAware ADS-B
Fri 02:15:52 AM 47.5850 8.4190 138° Southeast 161 185 4,600 -982 Descending FlightAware ADS-B
Fri 02:16:12 AM 47.5740 8.4350 136° Southeast 156 180 4,300 -327 Descending FlightAware ADS-B
Fri 02:16:47 AM 47.5540 8.4620 138° Southeast 157 181 4,300  Level FlightAware ADS-B
Fri 02:17:12 AM 47.5400 8.4810 138° Southeast 159 183 4,300 -545 Level FlightAware ADS-B
Fri 02:17:42 AM 47.5240 8.5040 136° Southeast 157 181 3,800 -933 Descending FlightAware ADS-B
Fri 02:17:57 AM 47.5160 8.5130 143° Southeast 155 178 3,600 -900 Descending FlightAware ADS-B
Fri 02:18:22 AM 47.5020 8.5330 136° Southeast 154 177 3,200 -800 Descending FlightAware ADS-B
Fri 02:18:42 AM 47.4930 8.5460 136° Southeast 139 160 3,000 -800 Descending FlightAware ADS-B
Fri 02:19:07 AM 47.4800 8.5630 139° Southeast 134 154 2,600 -840 Descending FlightAware ADS-B
Fri 02:19:32 AM 47.4690 8.5780 137° Southeast 138 159 2,300 -720 Descending FlightAware ADS-B
Fri 02:19:57 AM 47.4570 8.5950 136° Southeast 136 157 2,000 -429 Descending FlightAware ADS-B
Fri 02:20:42 AM 47.4390 8.6210 136° Southeast 137 158 1,800 -267 Descending FlightAware ADS-B

Login

Don't have an account? Register now (free) for customized features, flight alerts, and more!